Time;durP1;ratioP1;P1;durP2;ratioP2;P2;SDS_P1;SDS_P2;PMS_P1;PMS_P2;Temp;Humidity;BMP_temperature;BMP_pressure;BME280_temperature;BME280_humidity;BME280_pressure;Samples;Min_cycle;Max_cycle;Signal;HPM_P1;HPM_P2
2021/04/19 00:00:22;;;;;;;0.80;0.60;;;7.40;99.90;;;;;;4385136;32;20421;-73
2021/04/19 00:02:47;;;;;;;0.80;0.80;;;7.40;99.90;;;;;;4385461;32;20109;-73
2021/04/19 00:05:15;;;;;;;1.73;1.10;;;7.40;99.90;;;;;;4385193;32;20496;-73
2021/04/19 00:07:41;;;;;;;0.88;0.88;;;7.30;99.90;;;;;;4384730;32;20078;-73
2021/04/19 00:10:08;;;;;;;0.90;0.90;;;7.20;99.90;;;;;;4387958;32;20082;-73
2021/04/19 00:12:34;;;;;;;0.93;0.88;;;7.20;99.90;;;;;;4401354;32;20121;-73
2021/04/19 00:15:00;;;;;;;0.77;0.77;;;7.30;99.90;;;;;;4399956;32;20073;-73
2021/04/19 00:17:25;;;;;;;3.95;1.00;;;7.30;99.90;;;;;;4400830;32;20491;-73
2021/04/19 00:19:51;;;;;;;2.70;0.73;;;7.30;99.90;;;;;;4401730;32;20089;-73
2021/04/19 00:22:17;;;;;;;0.82;0.80;;;7.30;99.90;;;;;;4399077;32;20073;-73
2021/04/19 00:24:42;;;;;;;1.25;1.15;;;7.30;99.90;;;;;;4399786;32;20061;-73
2021/04/19 00:27:08;;;;;;;0.80;0.80;;;7.40;99.90;;;;;;4399952;32;20078;-73
2021/04/19 00:29:34;;;;;;;1.92;1.40;;;7.20;99.90;;;;;;4400172;32;20070;-73
2021/04/19 00:31:59;;;;;;;0.62;0.62;;;7.20;99.90;;;;;;4399774;32;20086;-73
2021/04/19 00:34:25;;;;;;;1.65;1.15;;;7.20;99.90;;;;;;4399970;32;20402;-73
2021/04/19 00:36:50;;;;;;;6.43;1.05;;;7.20;99.90;;;;;;4399807;32;20082;-73
2021/04/19 00:39:16;;;;;;;0.52;0.52;;;7.20;99.90;;;;;;4399828;32;20065;-73
2021/04/19 00:41:43;;;;;;;0.50;0.50;;;7.20;99.90;;;;;;4401585;32;20074;-73
2021/04/19 00:44:09;;;;;;;0.47;0.47;;;7.20;99.90;;;;;;4400308;32;20078;-73
2021/04/19 00:46:34;;;;;;;0.98;0.77;;;7.20;99.90;;;;;;4400732;32;20162;-73
2021/04/19 00:49:00;;;;;;;1.02;0.90;;;7.00;99.90;;;;;;4399794;32;20070;-73
2021/04/19 00:51:26;;;;;;;0.90;0.70;;;6.90;99.90;;;;;;4399066;32;20163;-73
2021/04/19 00:53:52;;;;;;;0.70;0.68;;;6.90;99.90;;;;;;4400278;32;20086;-73
2021/04/19 00:56:18;;;;;;;1.48;1.37;;;6.70;99.90;;;;;;4400233;32;20499;-73
2021/04/19 00:58:45;;;;;;;2.85;1.58;;;6.70;99.90;;;;;;4400179;32;20082;-73
2021/04/19 01:01:13;;;;;;;0.45;0.45;;;6.80;99.90;;;;;;4399915;32;20078;-73
2021/04/19 01:03:40;;;;;;;1.02;0.55;;;6.90;99.90;;;;;;4400364;32;20469;-73
2021/04/19 01:06:06;;;;;;;1.45;0.50;;;6.90;99.90;;;;;;4399518;32;20078;-73
2021/04/19 01:08:32;;;;;;;1.25;0.60;;;6.80;99.90;;;;;;4399449;32;20400;-72
2021/04/19 01:10:57;;;;;;;2.20;1.10;;;6.70;99.90;;;;;;4393470;32;20059;-72
2021/04/19 01:13:23;;;;;;;0.90;0.90;;;6.60;99.90;;;;;;4384596;32;20179;-72
2021/04/19 01:15:48;;;;;;;3.08;0.90;;;6.50;99.90;;;;;;4384876;32;20398;-72
2021/04/19 01:18:14;;;;;;;1.55;1.25;;;6.40;99.90;;;;;;4384756;32;20094;-72
2021/04/19 01:20:42;;;;;;;1.58;1.08;;;6.50;99.90;;;;;;4385006;32;20413;-72
2021/04/19 01:23:10;;;;;;;3.20;1.15;;;6.50;99.90;;;;;;4383650;32;20099;-72
2021/04/19 01:25:36;;;;;;;4.85;1.50;;;6.60;99.90;;;;;;4385326;32;20094;-73
2021/04/19 01:28:02;;;;;;;0.47;0.47;;;6.60;99.90;;;;;;4384356;32;20117;-73
2021/04/19 01:30:33;;;;;;;1.48;0.50;;;6.60;99.90;;;;;;4385049;32;20066;-73
2021/04/19 01:32:59;;;;;;;0.45;0.45;;;6.70;99.90;;;;;;4383650;32;20070;-73
2021/04/19 01:35:25;;;;;;;1.60;1.00;;;6.80;99.90;;;;;;4384469;32;20062;-73
2021/04/19 01:37:50;;;;;;;1.08;0.98;;;6.80;99.90;;;;;;4384541;32;20120;-73
2021/04/19 01:40:17;;;;;;;1.55;1.02;;;6.70;99.90;;;;;;4384889;32;20074;-73
2021/04/19 01:42:44;;;;;;;0.80;0.80;;;6.60;99.90;;;;;;4384190;32;20065;-73
2021/04/19 01:45:10;;;;;;;0.85;0.57;;;6.60;99.90;;;;;;4383852;32;20125;-73
2021/04/19 01:47:36;;;;;;;1.55;1.15;;;6.40;99.90;;;;;;4384619;32;20078;-73
2021/04/19 01:50:12;;;;;;;0.85;0.85;;;6.30;99.90;;;;;;4385391;32;20113;-73
2021/04/19 01:52:39;;;;;;;1.08;1.08;;;6.30;99.90;;;;;;4383187;32;20556;-73
2021/04/19 01:55:07;;;;;;;0.80;0.80;;;6.30;99.90;;;;;;4384222;32;20156;-73
2021/04/19 01:57:33;;;;;;;0.98;0.93;;;6.20;99.90;;;;;;4383881;32;20078;-73
2021/04/19 01:59:59;;;;;;;0.82;0.68;;;6.10;99.90;;;;;;4384710;32;20121;-73
2021/04/19 02:02:55;;;;;;;1.55;1.45;;;6.20;99.90;;;;;;4383944;32;20083;-73
2021/04/19 02:05:30;;;;;;;2.28;1.08;;;6.10;99.90;;;;;;4372618;32;20083;-73
2021/04/19 02:08:17;;;;;;;2.53;1.10;;;6.00;99.90;;;;;;4383597;32;20057;-73
2021/04/19 02:11:02;;;;;;;0.50;0.50;;;6.00;99.90;;;;;;4377898;32;20082;-73
2021/04/19 02:13:55;;;;;;;1.45;0.93;;;5.90;99.90;;;;;;4398949;32;20416;-73
2021/04/19 02:16:39;;;;;;;1.35;1.25;;;5.90;99.90;;;;;;4388566;32;20082;-73
2021/04/19 02:19:42;;;;;;;0.30;0.30;;;5.90;99.90;;;;;;4398771;32;20066;-73
2021/04/19 02:22:16;;;;;;;0.70;0.60;;;5.80;99.90;;;;;;4387411;32;20504;-73
2021/04/19 02:24:46;;;;;;;0.68;0.65;;;5.90;99.90;;;;;;4399956;32;20125;-73
2021/04/19 02:27:16;;;;;;;;;;;6.00;99.90;;;;;;4399252;32;20082;-73
2021/04/19 02:29:46;;;;;;;0.90;0.77;;;6.10;99.90;;;;;;4398524;32;20017;-73
2021/04/19 02:32:24;;;;;;;0.93;0.93;;;6.00;99.90;;;;;;4399060;32;20086;-73
2021/04/19 02:34:53;;;;;;;0.62;0.57;;;6.00;99.90;;;;;;4398567;32;20136;-73
2021/04/19 02:37:20;;;;;;;0.65;0.65;;;6.00;99.90;;;;;;4398680;32;20199;-73
2021/04/19 02:39:48;;;;;;;0.70;0.70;;;6.00;99.90;;;;;;4398913;32;20062;-73
2021/04/19 02:42:15;;;;;;;0.95;0.77;;;6.00;99.90;;;;;;4399319;32;20070;-73
2021/04/19 02:44:44;;;;;;;2.28;0.95;;;6.00;99.90;;;;;;4399088;32;20062;-73
2021/04/19 02:47:10;;;;;;;0.95;0.75;;;6.00;99.90;;;;;;4398751;32;20074;-73
2021/04/19 02:49:36;;;;;;;3.55;0.60;;;6.10;99.90;;;;;;4398103;32;20139;-73
2021/04/19 02:52:05;;;;;;;1.37;1.05;;;6.00;99.90;;;;;;4397859;32;20074;-73
2021/04/19 02:54:33;;;;;;;2.30;0.77;;;5.90;99.90;;;;;;4398374;32;20062;-73
2021/04/19 02:56:59;;;;;;;2.65;0.85;;;5.90;99.90;;;;;;4398526;32;20507;-73
2021/04/19 02:59:28;;;;;;;1.37;1.25;;;6.00;99.90;;;;;;4398512;32;20077;-73
2021/04/19 03:01:59;;;;;;;0.50;0.50;;;6.00;99.90;;;;;;4398900;32;20121;-73
2021/04/19 03:04:31;;;;;;;1.70;1.25;;;6.00;99.90;;;;;;4398074;32;20082;-73
2021/04/19 03:07:00;;;;;;;2.92;0.70;;;6.00;99.90;;;;;;4398540;32;20067;-73
2021/04/19 03:09:27;;;;;;;0.93;0.80;;;6.00;99.90;;;;;;4398272;32;20065;-73
2021/04/19 03:11:58;;;;;;;1.67;0.93;;;6.00;99.90;;;;;;4386169;32;20441;-73
2021/04/19 03:14:28;;;;;;;0.88;0.85;;;6.00;99.90;;;;;;4384619;32;20117;-73
2021/04/19 03:17:02;;;;;;;1.35;1.27;;;6.10;99.90;;;;;;4384468;32;20079;-73
2021/04/19 03:19:28;;;;;;;8.38;1.27;;;6.20;99.90;;;;;;4383474;32;20074;-73
2021/04/19 03:21:55;;;;;;;4.82;0.70;;;6.20;99.90;;;;;;4382911;32;20078;-73
2021/04/19 03:24:21;;;;;;;3.90;1.60;;;6.30;99.90;;;;;;4383495;32;20531;-73
2021/04/19 03:26:47;;;;;;;1.15;0.90;;;6.20;99.90;;;;;;4383356;32;20079;-73
2021/04/19 03:29:13;;;;;;;2.75;1.10;;;6.20;99.90;;;;;;4383207;32;20078;-73
2021/04/19 03:31:44;;;;;;;1.23;1.10;;;6.20;99.90;;;;;;4385342;32;20369;-73
2021/04/19 03:34:13;;;;;;;0.68;0.68;;;6.20;99.90;;;;;;4385335;32;20066;-73
2021/04/19 03:36:41;;;;;;;3.28;1.27;;;6.30;99.90;;;;;;4385370;32;20591;-73
2021/04/19 03:39:09;;;;;;;2.20;0.73;;;6.20;99.90;;;;;;4385940;32;20125;-73
2021/04/19 03:41:41;;;;;;;1.42;1.30;;;6.20;99.90;;;;;;4386554;32;20428;-73
2021/04/19 03:44:11;;;;;;;0.82;0.82;;;6.30;99.90;;;;;;4386326;32;20087;-73
2021/04/19 03:46:40;;;;;;;1.00;1.00;;;6.40;99.90;;;;;;4385146;32;20511;-73
2021/04/19 03:49:11;;;;;;;1.20;1.00;;;6.20;99.90;;;;;;4386735;32;20448;-73
2021/04/19 03:51:39;;;;;;;2.92;1.12;;;6.20;99.90;;;;;;4385436;32;20066;-73
2021/04/19 03:54:05;;;;;;;2.65;1.37;;;6.10;99.90;;;;;;4385328;32;20449;-73
2021/04/19 03:56:34;;;;;;;0.98;0.95;;;6.10;99.90;;;;;;4386178;32;20105;-73
2021/04/19 03:59:04;;;;;;;1.60;1.02;;;6.10;99.90;;;;;;4386923;32;20398;-73
2021/04/19 04:01:30;;;;;;;1.87;1.37;;;6.10;99.90;;;;;;4385386;32;20130;-73
2021/04/19 04:03:57;;;;;;;2.75;1.35;;;6.10;99.90;;;;;;4385329;32;20154;-73
2021/04/19 04:06:24;;;;;;;0.62;0.62;;;6.10;99.90;;;;;;4384962;32;20082;-73
2021/04/19 04:08:52;;;;;;;1.33;1.23;;;6.20;99.90;;;;;;4386038;32;20066;-73
2021/04/19 04:11:18;;;;;;;0.73;0.73;;;6.30;99.90;;;;;;4394350;32;20070;-73
2021/04/19 04:13:43;;;;;;;1.02;1.00;;;6.30;99.90;;;;;;4400523;32;20109;-73
2021/04/19 04:16:09;;;;;;;1.00;1.00;;;6.20;99.90;;;;;;4400335;32;20074;-73
2021/04/19 04:18:34;;;;;;;1.25;1.15;;;6.10;99.90;;;;;;4401598;32;20070;-73
2021/04/19 04:21:01;;;;;;;1.73;0.93;;;6.20;99.90;;;;;;4398883;32;20504;-73
2021/04/19 04:23:26;;;;;;;0.62;0.57;;;6.20;99.90;;;;;;4390210;32;20423;-73
2021/04/19 04:25:52;;;;;;;3.67;1.30;;;6.40;99.90;;;;;;4397848;32;20452;-73
2021/04/19 04:28:18;;;;;;;6.87;1.30;;;6.40;99.90;;;;;;4399723;32;20067;-73
2021/04/19 04:30:43;;;;;;;5.03;0.93;;;6.40;99.90;;;;;;4400673;32;20078;-73
2021/04/19 04:33:09;;;;;;;1.98;0.90;;;6.40;99.90;;;;;;4399740;32;20065;-73
2021/04/19 04:35:36;;;;;;;1.37;1.00;;;6.50;99.90;;;;;;4400876;32;20547;-73
2021/04/19 04:38:03;;;;;;;1.62;1.33;;;6.60;99.90;;;;;;4400814;32;20228;-73
2021/04/19 04:40:30;;;;;;;2.15;1.35;;;6.70;99.90;;;;;;4400141;32;20066;-73
2021/04/19 04:43:04;;;;;;;4.15;1.58;;;6.70;99.90;;;;;;4399480;32;20065;-73
2021/04/19 04:45:30;;;;;;;3.60;2.05;;;6.70;99.90;;;;;;4399848;32;20075;-73
2021/04/19 04:48:05;;;;;;;0.75;0.75;;;6.70;99.90;;;;;;4399640;32;20121;-73
2021/04/19 04:50:55;;;;;;;1.10;1.00;;;6.60;99.90;;;;;;4401051;32;20070;-73
2021/04/19 04:53:26;;;;;;;1.30;1.10;;;6.60;99.90;;;;;;4389541;32;20078;-71
2021/04/19 04:55:54;;;;;;;1.42;1.08;;;6.60;99.90;;;;;;4399994;32;20066;-73
2021/04/19 04:58:20;;;;;;;2.08;1.37;;;6.80;99.90;;;;;;4399714;32;20066;-73
2021/04/19 05:00:45;;;;;;;3.22;1.33;;;6.80;99.90;;;;;;4397920;32;20078;-73
2021/04/19 05:03:14;;;;;;;4.07;1.45;;;6.90;99.90;;;;;;4387142;32;20090;-73
2021/04/19 05:05:41;;;;;;;5.90;1.50;;;6.80;99.90;;;;;;4388268;32;20066;-73
2021/04/19 05:08:11;;;;;;;1.02;0.57;;;6.80;99.90;;;;;;4394277;32;20082;-73
2021/04/19 05:10:38;;;;;;;0.97;0.93;;;6.90;99.90;;;;;;4396419;32;20082;-73
2021/04/19 05:13:10;;;;;;;4.07;1.50;;;7.00;99.90;;;;;;4390572;32;20067;-73
2021/04/19 05:15:44;;;;;;;3.22;1.33;;;7.00;99.90;;;;;;4397117;32;20574;-73
2021/04/19 05:18:12;;;;;;;1.58;1.30;;;7.20;99.90;;;;;;4377042;32;20085;-73
2021/04/19 05:20:37;;;;;;;4.87;1.65;;;7.20;99.90;;;;;;4390753;32;20059;-72
2021/04/19 05:23:02;;;;;;;5.00;1.27;;;7.20;99.90;;;;;;4393614;32;20516;-72
2021/04/19 05:25:29;;;;;;;1.12;1.08;;;7.20;99.90;;;;;;4394941;32;20063;-72
2021/04/19 05:27:58;;;;;;;1.92;1.75;;;7.30;99.90;;;;;;4380106;32;20636;-72
2021/04/19 05:30:24;;;;;;;2.20;1.85;;;7.30;99.90;;;;;;4379223;32;21324;-72
2021/04/19 05:32:49;;;;;;;1.73;1.45;;;7.40;99.90;;;;;;4369367;32;20086;-72
2021/04/19 05:35:17;;;;;;;5.12;1.65;;;7.40;99.90;;;;;;4383357;32;20073;-72
2021/04/19 05:37:45;;;;;;;2.87;1.25;;;7.40;99.90;;;;;;4389239;32;20058;-72
2021/04/19 05:40:12;;;;;;;39.03;3.12;;;7.30;99.90;;;;;;4394452;32;20151;-72
2021/04/19 05:42:38;;;;;;;3.40;1.85;;;7.20;99.90;;;;;;4392205;32;20146;-72
2021/04/19 05:45:07;;;;;;;1.10;1.00;;;7.30;99.90;;;;;;4390374;32;20357;-74
2021/04/19 05:47:33;;;;;;;1.20;0.93;;;7.30;99.90;;;;;;4392426;32;20425;-72
2021/04/19 05:49:58;;;;;;;4.35;0.95;;;7.30;99.90;;;;;;4393481;32;20132;-72
2021/04/19 05:52:24;;;;;;;27.45;1.62;;;7.40;99.90;;;;;;4395500;32;20082;-73
2021/04/19 05:54:50;;;;;;;2.58;1.67;;;7.40;99.90;;;;;;4393110;32;20094;-72
2021/04/19 05:57:21;;;;;;;2.47;1.25;;;7.50;99.90;;;;;;4396478;32;20117;-72
2021/04/19 06:00:09;;;;;;;2.37;1.25;;;7.50;99.90;;;;;;4388702;32;20069;-73
2021/04/19 06:02:46;;;;;;;2.40;1.00;;;7.40;99.90;;;;;;4382245;32;20526;-74
2021/04/19 06:05:21;;;;;;;2.47;1.75;;;7.40;99.90;;;;;;4392667;32;20115;-74
2021/04/19 06:07:52;;;;;;;3.40;0.98;;;7.40;99.90;;;;;;4393190;32;20066;-74
2021/04/19 06:10:22;;;;;;;6.25;1.75;;;7.40;99.90;;;;;;4395295;32;20077;-74
2021/04/19 06:12:50;;;;;;;2.25;1.35;;;7.50;99.90;;;;;;4390787;32;20065;-73
2021/04/19 06:15:18;;;;;;;3.53;1.60;;;7.50;99.90;;;;;;4392413;32;20073;-73
2021/04/19 06:17:46;;;;;;;0.88;0.82;;;7.60;99.90;;;;;;4392828;32;20077;-72
2021/04/19 06:20:14;;;;;;;7.12;1.83;;;7.70;99.90;;;;;;4408286;32;20094;-73
2021/04/19 06:22:41;;;;;;;6.68;2.12;;;7.70;99.90;;;;;;4393084;32;20078;-73
2021/04/19 06:25:10;;;;;;;2.55;1.33;;;7.80;99.90;;;;;;4389156;32;20066;-73
2021/04/19 06:27:36;;;;;;;0.45;0.45;;;7.80;99.90;;;;;;4388263;32;20460;-73
2021/04/19 06:30:19;;;;;;;2.03;1.37;;;7.70;99.90;;;;;;4397381;32;20094;-74
2021/04/19 06:32:48;;;;;;;1.67;1.12;;;7.80;99.90;;;;;;4393481;32;20071;-74
2021/04/19 06:35:15;;;;;;;1.55;1.00;;;7.90;99.90;;;;;;4395639;32;20492;-72
2021/04/19 06:37:41;;;;;;;5.10;0.90;;;7.90;99.90;;;;;;4393534;32;20074;-72
2021/04/19 06:40:07;;;;;;;3.12;0.90;;;8.00;99.90;;;;;;4393557;32;20536;-74
2021/04/19 06:42:34;;;;;;;1.08;1.02;;;8.10;99.90;;;;;;4394686;32;20428;-73
2021/04/19 06:45:02;;;;;;;1.65;0.93;;;8.10;99.90;;;;;;4392325;32;20480;-73
2021/04/19 06:47:30;;;;;;;2.03;1.10;;;8.20;99.90;;;;;;4394731;32;20074;-73
2021/04/19 06:49:57;;;;;;;3.40;1.50;;;8.30;99.90;;;;;;4395986;32;20086;-73
2021/04/19 06:52:24;;;;;;;2.83;1.35;;;8.30;99.90;;;;;;4394347;32;20133;-73
2021/04/19 06:54:49;;;;;;;8.07;0.88;;;8.40;99.90;;;;;;4391356;32;20129;-73
2021/04/19 06:57:17;;;;;;;1.00;0.75;;;8.40;99.90;;;;;;4394953;32;20089;-72
2021/04/19 06:59:45;;;;;;;3.30;1.58;;;8.40;99.90;;;;;;4387850;32;20069;-72
2021/04/19 07:02:20;;;;;;;3.53;1.10;;;8.40;99.90;;;;;;4396102;32;20523;-73
2021/04/19 07:04:51;;;;;;;2.40;1.25;;;8.30;99.90;;;;;;4388225;32;20081;-73
2021/04/19 07:07:23;;;;;;;2.55;1.60;;;8.30;99.90;;;;;;4397970;32;20498;-74
2021/04/19 07:09:51;;;;;;;0.75;0.75;;;8.40;99.90;;;;;;4398934;32;20070;-74
2021/04/19 07:12:21;;;;;;;0.50;0.50;;;8.50;99.90;;;;;;4397296;32;20078;-74
2021/04/19 07:14:50;;;;;;;0.50;0.50;;;8.70;99.90;;;;;;4394252;32;20413;-74
2021/04/19 07:17:16;;;;;;;1.33;0.93;;;8.70;99.90;;;;;;4392681;32;20081;-74
2021/04/19 07:19:43;;;;;;;0.70;0.70;;;8.80;99.90;;;;;;4389251;32;20086;-73
2021/04/19 07:22:10;;;;;;;1.48;1.02;;;8.70;99.90;;;;;;4394788;32;20070;-73
2021/04/19 07:24:36;;;;;;;2.40;1.27;;;8.70;99.90;;;;;;4388833;32;20103;-73
2021/04/19 07:27:03;;;;;;;2.10;1.12;;;8.80;99.90;;;;;;4389723;32;20093;-73
2021/04/19 07:29:29;;;;;;;3.00;0.88;;;8.90;99.90;;;;;;4394725;32;20089;-73
2021/04/19 07:31:56;;;;;;;0.80;0.80;;;9.00;99.90;;;;;;4392751;32;20082;-72
2021/04/19 07:34:24;;;;;;;1.73;0.88;;;9.10;99.90;;;;;;4390128;32;20101;-73
2021/04/19 07:36:52;;;;;;;1.40;1.25;;;9.20;99.90;;;;;;4391326;32;20097;-74
2021/04/19 07:39:21;;;;;;;2.05;1.10;;;9.20;99.90;;;;;;4391281;32;20098;-74
2021/04/19 07:41:53;;;;;;;3.17;1.67;;;9.20;99.90;;;;;;4395568;32;20168;-73
2021/04/19 07:44:41;;;;;;;6.05;1.23;;;9.20;99.90;;;;;;4394544;32;20089;-72
2021/04/19 07:47:27;;;;;;;2.42;1.25;;;9.20;99.90;;;;;;4379428;32;20363;-74
2021/04/19 07:49:59;;;;;;;1.95;1.17;;;9.20;99.90;;;;;;4395113;32;20081;-74
2021/04/19 07:52:26;;;;;;;1.20;1.15;;;9.30;99.90;;;;;;4389832;32;20075;-73
2021/04/19 07:55:13;;;;;;;10.52;2.20;;;9.40;99.90;;;;;;4388121;32;20824;-73
2021/04/19 07:57:39;;;;;;;5.50;1.92;;;9.40;99.90;;;;;;4374324;32;20449;-74
2021/04/19 08:00:08;;;;;;;2.50;1.27;;;9.30;99.90;;;;;;4389737;32;20097;-72
2021/04/19 08:02:34;;;;;;;0.85;0.85;;;9.40;99.90;;;;;;4389419;32;20105;-73
2021/04/19 08:05:04;;;;;;;5.93;1.47;;;9.50;99.90;;;;;;4392390;32;20066;-74
2021/04/19 08:07:29;;;;;;;4.18;1.10;;;9.50;99.90;;;;;;4386208;32;20113;-72
2021/04/19 08:10:10;;;;;;;2.70;1.23;;;9.50;99.90;;;;;;4393828;32;20128;-73
2021/04/19 08:12:39;;;;;;;2.08;1.50;;;9.60;99.90;;;;;;4386513;32;20893;-73
2021/04/19 08:15:08;;;;;;;5.85;2.80;;;9.60;99.90;;;;;;4391122;32;20074;-72
2021/04/19 08:17:34;;;;;;;2.65;1.15;;;9.70;99.90;;;;;;4393099;32;20078;-73
2021/04/19 08:20:03;;;;;;;1.95;1.33;;;9.90;99.90;;;;;;4391841;32;20073;-74
2021/04/19 08:22:30;;;;;;;3.37;1.77;;;9.80;99.90;;;;;;4392154;32;20758;-73
2021/04/19 08:25:17;;;;;;;0.70;0.70;;;9.90;99.90;;;;;;4386264;32;20580;-72
2021/04/19 08:27:44;;;;;;;4.05;1.33;;;9.90;99.90;;;;;;4391183;32;20066;-73
2021/04/19 08:30:11;;;;;;;8.95;1.50;;;9.90;99.90;;;;;;4390316;32;20125;-72
2021/04/19 08:32:38;;;;;;;2.62;1.27;;;9.90;99.90;;;;;;4391600;32;20344;-73
2021/04/19 08:35:05;;;;;;;1.00;1.00;;;10.00;99.90;;;;;;4393855;32;20086;-73
2021/04/19 08:37:31;;;;;;;4.90;2.20;;;10.00;99.90;;;;;;4381237;32;20074;-72
2021/04/19 08:39:59;;;;;;;3.28;1.35;;;10.10;99.90;;;;;;4386907;32;20061;-73
2021/04/19 08:42:25;;;;;;;5.68;1.77;;;10.20;99.90;;;;;;4390852;32;20432;-72
2021/04/19 08:44:55;;;;;;;6.97;1.33;;;10.10;99.90;;;;;;4391935;32;20118;-72
2021/04/19 08:47:21;;;;;;;4.28;1.62;;;10.30;99.90;;;;;;4386610;32;20498;-72
2021/04/19 08:49:47;;;;;;;0.70;0.70;;;10.30;99.90;;;;;;4393135;32;20205;-73
2021/04/19 08:52:15;;;;;;;22.25;1.70;;;10.40;99.90;;;;;;4393938;32;20081;-71
2021/04/19 08:54:41;;;;;;;1.50;1.15;;;10.40;99.90;;;;;;4387938;32;20190;-72
2021/04/19 08:57:06;;;;;;;4.32;1.55;;;10.50;99.90;;;;;;4394491;32;20161;-72
2021/04/19 08:59:32;;;;;;;2.40;1.10;;;10.50;99.90;;;;;;4391205;32;20074;-71
2021/04/19 09:01:58;;;;;;;3.47;1.42;;;10.50;99.90;;;;;;4394051;32;20880;-72
2021/04/19 09:04:24;;;;;;;4.80;1.58;;;10.50;99.90;;;;;;4386866;32;20079;-72
2021/04/19 09:06:52;;;;;;;3.75;1.58;;;10.60;99.90;;;;;;4390478;32;20449;-72
2021/04/19 09:09:40;;;;;;;3.78;1.52;;;10.50;99.90;;;;;;4393758;32;20065;-72
2021/04/19 09:14:36;;;;;;;1.70;1.15;;;10.40;99.90;;;;;;4407406;32;20110;-59
2021/04/19 09:17:03;;;;;;;4.87;1.52;;;10.40;99.90;;;;;;4407477;32;20070;-60
2021/04/19 09:19:30;;;;;;;8.88;1.23;;;10.30;99.90;;;;;;4387336;32;20069;-60
2021/04/19 09:22:12;;;;;;;2.37;1.58;;;10.30;99.90;;;;;;4392021;32;20554;-61
2021/04/19 09:25:01;;;;;;;7.00;0.98;;;10.30;99.90;;;;;;4405409;32;20131;-61
2021/04/19 09:27:49;;;;;;;3.47;1.65;;;10.30;99.90;;;;;;4392796;32;20086;-60
2021/04/19 09:30:25;;;;;;;3.85;1.27;;;10.30;99.90;;;;;;4393442;32;20057;-60
2021/04/19 09:33:09;;;;;;;1.15;1.10;;;10.30;99.90;;;;;;4397721;32;20563;-61
2021/04/19 09:35:45;;;;;;;1.10;1.00;;;10.10;99.90;;;;;;4397967;32;20133;-61
2021/04/19 09:38:16;;;;;;;5.43;1.40;;;10.00;99.90;;;;;;4400845;32;20125;-61
2021/04/19 09:40:47;;;;;;;1.30;1.10;;;10.00;99.90;;;;;;4377600;32;72400;-59
2021/04/19 09:43:13;;;;;;;5.50;1.85;;;10.10;99.90;;;;;;4404920;32;20082;-61
2021/04/19 09:45:46;;;;;;;4.00;1.45;;;10.10;99.90;;;;;;4396539;32;20528;-60
2021/04/19 09:48:34;;;;;;;2.62;1.85;;;10.10;99.90;;;;;;4409439;32;20618;-60
2021/04/19 09:51:04;;;;;;;9.65;1.50;;;10.10;99.90;;;;;;4400986;32;20097;-60
2021/04/19 09:53:30;;;;;;;4.28;2.05;;;10.10;99.90;;;;;;4410905;32;20128;-60
2021/04/19 09:55:57;;;;;;;3.25;1.20;;;10.10;99.90;;;;;;4389791;32;20061;-60
2021/04/19 09:58:22;;;;;;;4.53;1.80;;;10.10;99.90;;;;;;4400837;32;20168;-61
2021/04/19 10:00:57;;;;;;;1.27;1.05;;;10.20;99.90;;;;;;4416963;32;20586;-60
2021/04/19 10:03:23;;;;;;;1.48;1.15;;;10.20;99.90;;;;;;4403543;32;20518;-61
2021/04/19 10:05:51;;;;;;;3.22;1.80;;;10.20;99.90;;;;;;4402492;32;20060;-60
2021/04/19 10:08:18;;;;;;;3.15;1.65;;;10.10;99.90;;;;;;4406215;32;20060;-60
2021/04/19 10:10:51;;;;;;;3.25;1.45;;;10.10;99.90;;;;;;4394142;32;20551;-59
2021/04/19 10:13:26;;;;;;;2.70;1.40;;;10.20;99.90;;;;;;4417245;32;20069;-61
2021/04/19 10:16:02;;;;;;;1.95;1.55;;;10.30;99.90;;;;;;4422265;32;20119;-63
2021/04/19 10:18:30;;;;;;;2.00;1.25;;;10.30;99.90;;;;;;4418034;32;20117;-60
2021/04/19 10:20:55;;;;;;;2.87;1.10;;;10.40;99.90;;;;;;4416708;32;20412;-60
2021/04/19 10:23:22;;;;;;;2.83;1.45;;;10.40;99.90;;;;;;4418504;32;20121;-59
2021/04/19 10:25:52;;;;;;;2.30;1.75;;;10.30;99.90;;;;;;4404817;32;20082;-62
2021/04/19 10:28:27;;;;;;;2.42;1.45;;;10.30;99.90;;;;;;4393350;32;20065;-58
2021/04/19 10:31:03;;;;;;;1.73;1.05;;;10.30;99.90;;;;;;4416653;32;20066;-60
2021/04/19 10:33:29;;;;;;;2.47;1.23;;;10.30;99.90;;;;;;4416881;32;20069;-59
2021/04/19 10:35:54;;;;;;;5.50;1.27;;;10.30;99.90;;;;;;4414860;32;20082;-61
2021/04/19 10:38:27;;;;;;;2.62;1.60;;;10.20;99.90;;;;;;4411844;32;20065;-60
2021/04/19 10:40:57;;;;;;;3.33;1.87;;;10.10;99.90;;;;;;4394025;32;20081;-58
2021/04/19 10:43:24;;;;;;;26.65;2.10;;;10.10;99.90;;;;;;4419619;32;20105;-60
2021/04/19 10:45:50;;;;;;;4.57;1.52;;;10.00;99.90;;;;;;4418276;32;20409;-60
2021/04/19 10:48:21;;;;;;;3.25;1.25;;;10.00;99.90;;;;;;4419652;32;20069;-60
2021/04/19 10:50:49;;;;;;;3.25;1.55;;;10.10;99.90;;;;;;4405886;32;20064;-61
2021/04/19 10:53:31;;;;;;;0.85;0.77;;;10.10;99.90;;;;;;4418253;32;20093;-61
2021/04/19 10:55:58;;;;;;;1.98;1.05;;;10.10;99.90;;;;;;4414186;32;20093;-60
2021/04/19 10:58:24;;;;;;;3.25;1.40;;;10.00;99.90;;;;;;4423473;32;20506;-61
2021/04/19 11:00:49;;;;;;;3.08;1.67;;;10.10;99.90;;;;;;4430611;32;20084;-61
2021/04/19 11:03:15;;;;;;;1.40;0.77;;;10.10;99.90;;;;;;4424961;32;20121;-62
2021/04/19 11:05:40;;;;;;;0.98;0.68;;;10.00;99.90;;;;;;4417869;32;20106;-61
2021/04/19 11:08:06;;;;;;;5.55;1.20;;;9.90;99.90;;;;;;4427170;32;20073;-61
2021/04/19 11:10:31;;;;;;;2.95;1.10;;;9.90;99.90;;;;;;4419512;32;20093;-59
2021/04/19 11:13:04;;;;;;;2.03;1.37;;;10.00;99.90;;;;;;4417963;32;20147;-61
2021/04/19 11:15:46;;;;;;;2.15;1.00;;;10.00;99.90;;;;;;4404054;32;20069;-62
2021/04/19 11:18:22;;;;;;;3.05;0.60;;;10.10;99.90;;;;;;4421909;32;20061;-61
2021/04/19 11:20:49;;;;;;;1.87;1.05;;;10.10;99.90;;;;;;4411424;32;20123;-61
2021/04/19 11:23:27;;;;;;;3.40;1.25;;;10.20;99.90;;;;;;4417417;32;20086;-60
2021/04/19 11:25:56;;;;;;;6.22;1.98;;;10.30;99.90;;;;;;4405462;32;20061;-60
2021/04/19 11:28:33;;;;;;;1.52;1.42;;;10.50;99.90;;;;;;4420040;32;20065;-62
2021/04/19 11:31:12;;;;;;;1.45;1.35;;;10.70;99.90;;;;;;4412232;32;20062;-62
2021/04/19 11:33:38;;;;;;;3.65;1.67;;;10.80;99.90;;;;;;4416875;32;20140;-62
2021/04/19 11:36:06;;;;;;;1.87;1.05;;;10.70;99.90;;;;;;4401745;32;20073;-61
2021/04/19 11:38:35;;;;;;;6.03;1.42;;;10.50;99.90;;;;;;4400379;32;20093;-62
2021/04/19 11:41:03;;;;;;;11.12;1.58;;;10.50;99.90;;;;;;4408172;32;20078;-62
2021/04/19 11:43:31;;;;;;;0.70;0.60;;;10.60;99.90;;;;;;4395113;32;20128;-60
2021/04/19 11:46:14;;;;;;;6.20;1.65;;;10.70;99.90;;;;;;4401137;32;20130;-59
2021/04/19 11:48:44;;;;;;;1.80;1.27;;;10.80;99.90;;;;;;4420162;32;20120;-61
2021/04/19 11:51:11;;;;;;;3.42;1.12;;;11.40;99.90;;;;;;4412605;32;20078;-62
2021/04/19 11:53:39;;;;;;;1.83;1.55;;;11.60;99.90;;;;;;4408341;32;20078;-62
2021/04/19 11:56:06;;;;;;;2.10;1.20;;;11.70;99.90;;;;;;4403457;32;20066;-61
2021/04/19 11:58:35;;;;;;;0.60;0.60;;;11.70;99.90;;;;;;4423507;32;20171;-60
2021/04/19 12:01:01;;;;;;;1.20;1.10;;;12.00;99.90;;;;;;4415848;32;20510;-61
2021/04/19 12:03:26;;;;;;;3.67;1.45;;;11.90;99.90;;;;;;4414551;32;20075;-61
2021/04/19 12:05:53;;;;;;;3.12;1.10;;;11.90;99.90;;;;;;4420338;32;20111;-62
2021/04/19 12:08:18;;;;;;;2.47;0.70;;;12.30;99.90;;;;;;4403709;32;20073;-63
2021/04/19 12:10:44;;;;;;;2.35;1.02;;;13.10;99.90;;;;;;4409397;32;20429;-61
2021/04/19 12:13:14;;;;;;;4.30;1.40;;;13.60;99.90;;;;;;4405477;32;21595;-61
2021/04/19 12:15:42;;;;;;;3.58;1.80;;;13.80;99.90;;;;;;4422456;32;20482;-61
2021/04/19 12:18:08;;;;;;;23.02;1.23;;;14.10;99.90;;;;;;4411980;32;20144;-61
2021/04/19 12:20:34;;;;;;;5.30;0.88;;;14.80;99.90;;;;;;4423609;32;20120;-62
2021/04/19 12:22:59;;;;;;;11.05;1.48;;;14.60;99.90;;;;;;4404413;32;20142;-60
2021/04/19 12:25:25;;;;;;;2.15;1.10;;;14.90;99.90;;;;;;4414739;32;20562;-61
2021/04/19 12:27:51;;;;;;;0.82;0.73;;;15.60;99.90;;;;;;4401677;32;20441;-62
2021/04/19 12:30:17;;;;;;;1.30;1.20;;;16.30;99.90;;;;;;4413169;32;20065;-61
2021/04/19 12:32:42;;;;;;;3.72;1.37;;;16.20;99.90;;;;;;4413928;32;20404;-63
2021/04/19 12:35:08;;;;;;;2.30;1.02;;;15.90;99.90;;;;;;4420755;32;20069;-60
2021/04/19 12:37:34;;;;;;;1.05;0.75;;;16.00;99.90;;;;;;4417861;32;20128;-63
2021/04/19 12:39:59;;;;;;;0.60;0.60;;;16.40;99.90;;;;;;4419393;32;20065;-61
2021/04/19 12:42:25;;;;;;;0.73;0.73;;;16.50;99.90;;;;;;4406578;32;20090;-61
2021/04/19 12:44:50;;;;;;;0.57;0.57;;;16.20;99.90;;;;;;4415856;32;20178;-62
2021/04/19 12:47:16;;;;;;;4.75;1.23;;;15.50;99.90;;;;;;4423556;32;20605;-60
2021/04/19 12:49:41;;;;;;;1.02;0.93;;;14.90;99.90;;;;;;4412556;32;20081;-63
2021/04/19 12:52:07;;;;;;;2.30;1.20;;;14.50;99.90;;;;;;4412961;32;20519;-61
2021/04/19 12:54:32;;;;;;;3.72;1.08;;;14.30;99.90;;;;;;4417290;32;20069;-61
2021/04/19 12:56:58;;;;;;;1.83;1.17;;;14.00;99.90;;;;;;4429773;32;20512;-61
2021/04/19 12:59:24;;;;;;;0.90;0.88;;;13.70;99.90;;;;;;4415076;32;20128;-63
2021/04/19 13:01:49;;;;;;;0.95;0.95;;;13.50;99.90;;;;;;4401355;32;20058;-62
2021/04/19 13:04:17;;;;;;;3.08;1.20;;;13.40;99.90;;;;;;4400301;32;20173;-61